createdAt,value
2019-04-07T00:00:28.298Z,29.70
2019-04-07T00:01:28.413Z,27.90
2019-04-07T00:02:28.238Z,32.50
2019-04-07T00:03:28.781Z,32.30
2019-04-07T00:04:28.182Z,33.60
2019-04-07T00:05:28.157Z,30.20
2019-04-07T00:06:28.126Z,30.50
2019-04-07T00:07:28.494Z,31.60
2019-04-07T00:08:28.312Z,30.50
2019-04-07T00:09:28.643Z,30.90
2019-04-07T00:10:28.666Z,29.60
2019-04-07T00:11:27.987Z,28.10
2019-04-07T00:12:27.956Z,29.70
2019-04-07T00:13:28.209Z,30.70
2019-04-07T00:14:28.191Z,31.30
2019-04-07T00:15:27.874Z,30.60
2019-04-07T00:16:27.861Z,31.10
2019-04-07T00:17:27.818Z,30.70
2019-04-07T00:18:27.790Z,30.60
2019-04-07T00:19:28.319Z,29.60
2019-04-07T00:20:27.765Z,29.70
2019-04-07T00:21:28.054Z,29.80
2019-04-07T00:22:27.997Z,29.30
2019-04-07T00:23:27.647Z,29.20
2019-04-07T00:24:27.618Z,28.50
2019-04-07T00:25:27.707Z,29.00
2019-04-07T00:26:27.906Z,30.00
2019-04-07T00:27:27.537Z,30.70
2019-04-07T00:28:27.569Z,30.20
2019-04-07T00:29:27.718Z,29.30
2019-04-07T00:30:27.447Z,28.00
2019-04-07T00:31:27.754Z,30.20
2019-04-07T00:32:27.409Z,29.00
2019-04-07T00:33:27.382Z,30.00
2019-04-07T00:34:27.631Z,28.60
2019-04-07T00:35:31.506Z,29.80
2019-04-07T00:36:27.888Z,30.20
2019-04-07T00:37:27.375Z,31.90
2019-04-07T00:38:27.224Z,30.10
2019-04-07T00:39:27.193Z,29.20
2019-04-07T00:40:27.164Z,30.90
2019-04-07T00:41:27.514Z,31.50
2019-04-07T00:42:27.519Z,30.50
2019-04-07T00:43:27.509Z,31.80
2019-04-07T00:44:27.049Z,30.40
2019-04-07T00:45:27.020Z,30.50
2019-04-07T00:46:26.992Z,30.60
2019-04-07T00:47:26.965Z,32.10
2019-04-07T00:48:27.466Z,31.50
2019-04-07T00:49:26.949Z,32.40
2019-04-07T00:50:26.885Z,32.20
2019-04-07T00:51:26.850Z,32.00
2019-04-07T00:52:27.303Z,30.80
2019-04-07T00:53:26.808Z,31.70
2019-04-07T00:54:26.935Z,31.50
2019-04-07T00:55:26.963Z,32.50
2019-04-07T00:56:26.958Z,31.10
2019-04-07T00:57:26.683Z,31.80
2019-04-07T00:58:26.933Z,31.20
2019-04-07T00:59:26.625Z,30.60
2019-04-07T01:00:26.988Z,31.40
2019-04-07T01:01:27.125Z,31.80
2019-04-07T01:02:26.534Z,31.00
2019-04-07T01:03:26.917Z,31.60
2019-04-07T01:04:26.593Z,33.20
2019-04-07T01:05:35.648Z,32.90
2019-04-07T01:06:26.859Z,33.40
2019-04-07T01:07:26.660Z,31.60
2019-04-07T01:08:26.361Z,31.70
2019-04-07T01:09:26.334Z,32.60
2019-04-07T01:10:26.307Z,31.00
2019-04-07T01:11:26.706Z,32.60
2019-04-07T01:12:26.247Z,33.40
2019-04-07T01:13:26.301Z,32.00
2019-04-07T01:14:26.339Z,33.50
2019-04-07T01:15:26.384Z,31.90
2019-04-07T01:16:26.277Z,32.50
2019-04-07T01:17:26.102Z,32.70
2019-04-07T01:18:27.660Z,32.00
2019-04-07T01:19:26.069Z,32.60
2019-04-07T01:20:26.016Z,31.80
2019-04-07T01:21:25.987Z,32.60
2019-04-07T01:22:26.568Z,32.00
2019-04-07T01:23:26.014Z,33.30
2019-04-07T01:24:25.909Z,33.30
2019-04-07T01:25:25.872Z,32.20
2019-04-07T01:26:25.908Z,32.10
2019-04-07T01:27:25.893Z,33.60
2019-04-07T01:28:26.272Z,33.90
2019-04-07T01:29:25.759Z,35.40
2019-04-07T01:30:26.077Z,32.50
2019-04-07T01:31:25.698Z,33.20
2019-04-07T01:32:25.786Z,32.60
2019-04-07T01:33:26.283Z,32.20
2019-04-07T01:34:26.174Z,32.60
2019-04-07T01:35:25.645Z,33.20
2019-04-07T01:36:25.790Z,32.80
2019-04-07T01:37:25.524Z,32.70
2019-04-07T01:38:25.779Z,33.30
2019-04-07T01:39:25.660Z,33.10
2019-04-07T01:40:25.700Z,33.90
2019-04-07T01:41:25.475Z,33.80
2019-04-07T01:42:25.565Z,31.80
2019-04-07T01:43:25.909Z,33.50
2019-04-07T01:44:25.627Z,33.40
2019-04-07T01:45:25.291Z,34.60
2019-04-07T01:46:25.261Z,33.20
2019-04-07T01:47:25.234Z,35.40
2019-04-07T01:48:25.716Z,34.20
2019-04-07T01:49:25.175Z,33.50
2019-04-07T01:50:25.146Z,33.10
2019-04-07T01:51:25.786Z,34.60
2019-04-07T01:52:25.086Z,34.50
2019-04-07T01:53:25.409Z,35.50
2019-04-07T01:54:25.681Z,35.40
2019-04-07T01:55:25.695Z,35.20
2019-04-07T01:56:24.970Z,35.30
2019-04-07T01:57:25.555Z,33.20
2019-04-07T01:58:25.237Z,34.40
2019-04-07T01:59:25.370Z,35.00
2019-04-07T02:00:25.034Z,34.60
2019-04-07T02:01:24.823Z,35.10
2019-04-07T02:02:24.852Z,35.00
2019-04-07T02:03:25.345Z,35.90
2019-04-07T02:04:24.737Z,37.30
2019-04-07T02:05:25.304Z,35.40
2019-04-07T02:06:24.678Z,36.10
2019-04-07T02:07:24.666Z,35.80
2019-04-07T02:08:24.791Z,35.10
2019-04-07T02:09:24.830Z,33.60
2019-04-07T02:10:25.206Z,35.80
2019-04-07T02:11:24.531Z,34.60
2019-04-07T02:12:24.834Z,33.40
2019-04-07T02:13:24.482Z,33.10
2019-04-07T02:14:24.442Z,34.40
2019-04-07T02:15:25.167Z,34.40
2019-04-07T02:16:24.618Z,34.30
2019-04-07T02:17:25.146Z,33.20
2019-04-07T02:18:24.667Z,34.20
2019-04-07T02:19:24.296Z,34.10
2019-04-07T02:20:24.265Z,36.00
2019-04-07T02:21:24.909Z,34.70
2019-04-07T02:22:24.208Z,34.70
2019-04-07T02:23:24.177Z,35.10
2019-04-07T02:24:24.567Z,33.80
2019-04-07T02:25:24.124Z,35.10
2019-04-07T02:26:24.090Z,34.30
2019-04-07T02:27:24.058Z,34.40
2019-04-07T02:28:24.030Z,36.80
2019-04-07T02:29:24.632Z,37.90
2019-04-07T02:30:23.972Z,37.40
2019-04-07T02:31:23.942Z,38.10
2019-04-07T02:32:24.623Z,38.50
2019-04-07T02:33:24.351Z,37.40
2019-04-07T02:34:23.871Z,35.90
2019-04-07T02:35:24.598Z,34.70
2019-04-07T02:36:27.376Z,37.60
2019-04-07T02:37:24.560Z,35.20
2019-04-07T02:38:23.740Z,35.40
2019-04-07T02:39:23.708Z,33.80
2019-04-07T02:40:23.676Z,34.80
2019-04-07T02:41:24.084Z,34.30
2019-04-07T02:42:23.618Z,34.20
2019-04-07T02:43:24.191Z,35.90
2019-04-07T02:44:23.909Z,36.20
2019-04-07T02:45:23.737Z,36.60
2019-04-07T02:46:24.071Z,36.00
2019-04-07T02:47:24.464Z,36.90
2019-04-07T02:48:24.194Z,33.90
2019-04-07T02:49:24.170Z,34.80
2019-04-07T02:50:24.136Z,34.40
2019-04-07T02:51:24.242Z,34.00
2019-04-07T02:52:23.371Z,34.70
2019-04-07T02:53:23.298Z,36.20
2019-04-07T02:54:23.258Z,34.00
2019-04-07T02:55:23.791Z,37.40
2019-04-07T02:56:23.750Z,35.70
2019-04-07T02:57:24.213Z,35.80
2019-04-07T02:58:23.892Z,36.70
2019-04-07T02:59:23.302Z,36.70
2019-04-07T03:00:23.081Z,37.50
2019-04-07T03:01:23.050Z,38.10
2019-04-07T03:02:23.299Z,38.60
2019-04-07T03:03:22.994Z,37.80
2019-04-07T03:04:23.140Z,39.30
2019-04-07T03:05:22.930Z,36.80
2019-04-07T03:06:37.497Z,38.50
2019-04-07T03:07:23.739Z,36.40
2019-04-07T03:08:23.630Z,34.60
2019-04-07T03:09:22.919Z,35.90
2019-04-07T03:10:22.866Z,35.10
2019-04-07T03:11:22.754Z,38.10
2019-04-07T03:12:23.444Z,37.00
2019-04-07T03:13:22.937Z,36.80
2019-04-07T03:14:22.665Z,36.90
2019-04-07T03:15:22.767Z,36.50
2019-04-07T03:16:22.604Z,38.90
2019-04-07T03:17:23.289Z,38.00
2019-04-07T03:18:25.261Z,39.00
2019-04-07T03:19:23.485Z,36.50
2019-04-07T03:20:23.110Z,38.00
2019-04-07T03:21:22.653Z,39.00
2019-04-07T03:22:22.423Z,38.10
2019-04-07T03:23:22.395Z,39.30
2019-04-07T03:24:22.403Z,39.60
2019-04-07T03:25:22.333Z,41.80
2019-04-07T03:26:22.385Z,39.50
2019-04-07T03:27:22.272Z,40.30
2019-04-07T03:28:22.713Z,39.80
2019-04-07T03:29:22.213Z,38.70
2019-04-07T03:30:24.772Z,36.70
2019-04-07T03:31:23.910Z,37.30
2019-04-07T03:32:24.626Z,39.90
2019-04-07T03:33:23.631Z,40.00
2019-04-07T03:34:24.050Z,38.50
2019-04-07T03:35:25.127Z,39.80
2019-04-07T03:36:24.262Z,36.50
2019-04-07T03:37:35.133Z,38.20
2019-04-07T03:38:22.261Z,39.00
2019-04-07T03:39:22.285Z,36.90
2019-04-07T03:40:22.318Z,39.10
2019-04-07T03:41:21.849Z,38.40
2019-04-07T03:42:21.824Z,37.90
2019-04-07T03:43:21.822Z,37.10
2019-04-07T03:44:22.552Z,37.30
2019-04-07T03:45:22.174Z,36.80
2019-04-07T03:46:21.724Z,36.30
2019-04-07T03:47:22.321Z,37.60
2019-04-07T03:48:21.637Z,37.80
2019-04-07T03:49:21.625Z,36.60
2019-04-07T03:50:21.833Z,37.00
2019-04-07T03:51:22.386Z,37.00
2019-04-07T03:52:22.393Z,38.60
2019-04-07T03:53:21.489Z,36.40
2019-04-07T03:54:21.460Z,39.10
2019-04-07T03:55:22.536Z,38.40
2019-04-07T03:56:21.952Z,37.90
2019-04-07T03:57:21.561Z,37.00
2019-04-07T03:58:21.337Z,36.40
2019-04-07T03:59:21.582Z,37.30
2019-04-07T04:00:21.277Z,38.00
2019-04-07T04:01:21.954Z,38.00
2019-04-07T04:02:21.681Z,38.00
2019-04-07T04:03:21.186Z,39.70
2019-04-07T04:04:22.186Z,39.10
2019-04-07T04:05:22.059Z,37.90
2019-04-07T04:06:21.093Z,39.10
2019-04-07T04:07:29.897Z,38.60
2019-04-07T04:08:21.039Z,39.20
2019-04-07T04:09:22.021Z,39.40
2019-04-07T04:10:21.210Z,40.70
2019-04-07T04:11:20.945Z,40.50
2019-04-07T04:12:21.293Z,37.60
2019-04-07T04:13:21.719Z,36.70
2019-04-07T04:14:21.859Z,39.20
2019-04-07T04:15:20.823Z,38.60
2019-04-07T04:16:20.792Z,36.90
2019-04-07T04:17:21.061Z,38.60
2019-04-07T04:18:20.736Z,37.70
2019-04-07T04:19:20.929Z,40.30
2019-04-07T04:20:21.500Z,41.20
2019-04-07T04:21:20.638Z,43.30
2019-04-07T04:22:21.059Z,41.00
2019-04-07T04:23:20.579Z,39.80
2019-04-07T04:24:20.547Z,42.10
2019-04-07T04:25:21.291Z,39.50
2019-04-07T04:26:21.415Z,39.20
2019-04-07T04:27:20.741Z,38.60
2019-04-07T04:28:20.527Z,42.60
2019-04-07T04:29:20.398Z,41.90
2019-04-07T04:30:21.170Z,41.00
2019-04-07T04:31:20.336Z,41.80
2019-04-07T04:32:21.550Z,39.10
2019-04-07T04:33:20.276Z,36.50
2019-04-07T04:34:20.514Z,35.90
2019-04-07T04:35:20.214Z,37.60
2019-04-07T04:36:20.183Z,38.10
2019-04-07T04:37:34.759Z,36.20
2019-04-07T04:38:20.152Z,36.40
2019-04-07T04:39:21.179Z,36.30
2019-04-07T04:40:20.715Z,37.30
2019-04-07T04:41:20.968Z,36.70
2019-04-07T04:42:20.399Z,37.10
2019-04-07T04:43:19.972Z,37.10
2019-04-07T04:44:20.615Z,34.60
2019-04-07T04:45:19.909Z,37.10
2019-04-07T04:46:19.890Z,36.30
2019-04-07T04:47:20.614Z,36.20
2019-04-07T04:48:19.868Z,36.00
2019-04-07T04:49:19.998Z,35.10
2019-04-07T04:50:19.755Z,34.40
2019-04-07T04:51:19.919Z,34.20
2019-04-07T04:52:20.612Z,35.60
2019-04-07T04:53:19.665Z,36.00
2019-04-07T04:54:19.635Z,36.20
2019-04-07T04:55:19.606Z,38.00
2019-04-07T04:56:19.966Z,38.40
2019-04-07T04:57:19.965Z,36.90
2019-04-07T04:58:19.837Z,37.00
2019-04-07T04:59:20.338Z,36.50
2019-04-07T05:00:20.269Z,34.80
2019-04-07T05:01:19.425Z,36.30
2019-04-07T05:02:19.390Z,35.00
2019-04-07T05:03:19.480Z,35.80
2019-04-07T05:04:19.339Z,35.40
2019-04-07T05:05:19.874Z,36.00
2019-04-07T05:06:19.895Z,36.10
2019-04-07T05:07:19.240Z,36.60
2019-04-07T05:08:19.210Z,34.70
2019-04-07T05:09:19.983Z,35.90
2019-04-07T05:10:19.321Z,36.00
2019-04-07T05:11:19.127Z,34.10
2019-04-07T05:12:19.233Z,34.20
2019-04-07T05:13:19.788Z,35.10
2019-04-07T05:14:19.750Z,34.80
2019-04-07T05:15:18.997Z,32.90
2019-04-07T05:16:19.725Z,34.30
2019-04-07T05:17:18.941Z,34.40
2019-04-07T05:18:18.907Z,34.10
2019-04-07T05:19:19.345Z,35.00
2019-04-07T05:20:18.883Z,34.20
2019-04-07T05:21:18.817Z,34.00
2019-04-07T05:22:18.787Z,35.00
2019-04-07T05:23:19.625Z,34.00
2019-04-07T05:24:19.495Z,32.90
2019-04-07T05:25:18.695Z,32.00
2019-04-07T05:26:18.972Z,34.80
2019-04-07T05:27:18.649Z,34.40
2019-04-07T05:28:19.129Z,33.80
2019-04-07T05:29:18.656Z,34.70
2019-04-07T05:30:18.915Z,33.00
2019-04-07T05:31:18.741Z,31.50
2019-04-07T05:32:18.485Z,32.80
2019-04-07T05:33:18.840Z,32.40
2019-04-07T05:34:20.538Z,32.50
2019-04-07T05:35:18.776Z,30.50
2019-04-07T05:36:18.368Z,32.10
2019-04-07T05:37:18.831Z,32.50
2019-04-07T05:38:19.061Z,32.70
2019-04-07T05:39:18.287Z,32.90
2019-04-07T05:40:18.252Z,32.00
2019-04-07T05:41:18.391Z,30.70
2019-04-07T05:42:18.833Z,28.80
2019-04-07T05:43:18.483Z,28.30
2019-04-07T05:44:18.866Z,27.50
2019-04-07T05:45:18.105Z,27.30
2019-04-07T05:46:18.077Z,26.00
2019-04-07T05:47:18.051Z,27.10
2019-04-07T05:48:20.133Z,24.90
2019-04-07T05:49:18.988Z,25.80
2019-04-07T05:50:17.967Z,24.70
2019-04-07T05:51:17.940Z,23.90
2019-04-07T05:52:18.118Z,25.00
2019-04-07T05:53:17.887Z,23.20
2019-04-07T05:54:19.795Z,23.90
2019-04-07T05:55:20.607Z,23.70
2019-04-07T05:56:17.807Z,24.50
2019-04-07T05:57:18.561Z,22.70
2019-04-07T05:58:17.995Z,22.50
2019-04-07T05:59:17.734Z,24.20
2019-04-07T06:00:17.709Z,23.00
2019-04-07T06:01:21.716Z,22.50
2019-04-07T06:02:17.862Z,22.40
2019-04-07T06:03:17.754Z,22.10
2019-04-07T06:04:18.612Z,21.70
2019-04-07T06:05:18.574Z,22.00
2019-04-07T06:06:19.058Z,21.30
2019-04-07T06:07:17.542Z,21.00
2019-04-07T06:08:24.780Z,22.50
2019-04-07T06:09:18.904Z,22.70
2019-04-07T06:10:18.198Z,21.00
2019-04-07T06:11:17.449Z,22.10
2019-04-07T06:12:17.497Z,21.70
2019-04-07T06:13:17.611Z,21.40
2019-04-07T06:14:17.501Z,22.10
2019-04-07T06:15:21.548Z,21.10
2019-04-07T06:16:18.505Z,20.20
2019-04-07T06:17:17.344Z,20.90
2019-04-07T06:18:17.345Z,19.40
2019-04-07T06:19:17.286Z,19.80
2019-04-07T06:20:18.067Z,20.50
2019-04-07T06:21:17.368Z,21.00
2019-04-07T06:22:19.845Z,19.60
2019-04-07T06:23:17.773Z,20.60
2019-04-07T06:24:17.167Z,20.20
2019-04-07T06:25:17.148Z,19.60
2019-04-07T06:26:17.384Z,19.10
2019-04-07T06:27:18.124Z,19.90
2019-04-07T06:28:19.009Z,19.40
2019-04-07T06:29:17.072Z,19.20
2019-04-07T06:30:17.595Z,19.90
2019-04-07T06:31:17.383Z,19.60
2019-04-07T06:32:17.729Z,18.60
2019-04-07T06:33:17.496Z,18.60
2019-04-07T06:34:17.198Z,19.40
2019-04-07T06:35:17.030Z,19.10
2019-04-07T06:36:18.683Z,19.30
2019-04-07T06:37:16.901Z,19.00
2019-04-07T06:38:16.881Z,19.30
2019-04-07T06:39:18.879Z,18.60
2019-04-07T06:40:20.414Z,18.70
2019-04-07T06:41:17.381Z,18.50
2019-04-07T06:42:17.546Z,18.80
2019-04-07T06:43:16.982Z,19.20
2019-04-07T06:44:20.889Z,19.70
2019-04-07T06:45:20.551Z,19.00
2019-04-07T06:46:16.721Z,18.70
2019-04-07T06:47:17.723Z,18.90
2019-04-07T06:48:16.683Z,18.10
2019-04-07T06:49:16.664Z,17.90
2019-04-07T06:50:16.896Z,18.90
2019-04-07T06:51:17.302Z,18.70
2019-04-07T06:52:17.220Z,19.50
2019-04-07T06:53:19.052Z,19.20
2019-04-07T06:54:21.651Z,18.50
2019-04-07T06:55:16.551Z,18.30
2019-04-07T06:56:16.590Z,18.60
2019-04-07T06:57:17.374Z,19.50
2019-04-07T06:58:16.567Z,18.30
2019-04-07T06:59:16.603Z,19.40
2019-04-07T07:00:17.493Z,18.40
2019-04-07T07:01:16.639Z,19.00
2019-04-07T07:02:16.422Z,18.90
2019-04-07T07:03:16.589Z,18.30
2019-04-07T07:04:16.753Z,18.80
2019-04-07T07:05:16.415Z,18.30
2019-04-07T07:06:17.354Z,18.40
2019-04-07T07:07:17.956Z,18.60
2019-04-07T07:08:19.357Z,18.50
2019-04-07T07:09:16.592Z,18.60
2019-04-07T07:10:26.143Z,18.80
2019-04-07T07:11:27.602Z,17.90
2019-04-07T07:12:22.478Z,17.90
2019-04-07T07:13:28.442Z,18.80
2019-04-07T07:14:30.612Z,18.30
2019-04-07T07:15:16.189Z,19.10
2019-04-07T07:16:17.330Z,18.60
2019-04-07T07:17:18.539Z,17.50
2019-04-07T07:18:20.006Z,18.90
2019-04-07T07:19:16.114Z,18.50
2019-04-07T07:20:16.093Z,17.90
2019-04-07T07:21:16.628Z,18.90
2019-04-07T07:22:17.400Z,18.40
2019-04-07T07:23:16.863Z,18.90
2019-04-07T07:24:21.458Z,18.10
2019-04-07T07:25:16.003Z,18.50
2019-04-07T07:26:16.079Z,18.10
2019-04-07T07:27:16.411Z,18.30
2019-04-07T07:28:16.169Z,18.50
2019-04-07T07:29:17.194Z,17.90
2019-04-07T07:30:19.050Z,18.10
2019-04-07T07:31:16.662Z,17.20
2019-04-07T07:32:15.985Z,18.00
2019-04-07T07:33:15.859Z,18.90
2019-04-07T07:34:16.361Z,18.20
2019-04-07T07:35:16.459Z,18.30
2019-04-07T07:36:18.417Z,17.70
2019-04-07T07:37:15.875Z,17.20
2019-04-07T07:38:15.770Z,18.00
2019-04-07T07:39:15.752Z,18.70
2019-04-07T07:40:18.089Z,18.10
2019-04-07T07:41:19.173Z,17.70
2019-04-07T07:42:15.698Z,17.00
2019-04-07T07:43:15.682Z,17.80
2019-04-07T07:44:15.676Z,17.90
2019-04-07T07:45:15.686Z,18.30
2019-04-07T07:46:18.133Z,16.90
2019-04-07T07:47:17.611Z,18.80
2019-04-07T07:48:16.320Z,18.10
2019-04-07T07:49:15.777Z,17.10
2019-04-07T07:50:15.558Z,17.90
2019-04-07T07:51:16.394Z,17.90
2019-04-07T07:52:18.564Z,18.60
2019-04-07T07:53:15.805Z,17.60
2019-04-07T07:54:16.177Z,17.90
2019-04-07T07:55:15.473Z,17.30
2019-04-07T07:56:16.052Z,17.50
2019-04-07T07:57:16.070Z,17.20
2019-04-07T07:58:15.775Z,17.30
2019-04-07T07:59:15.418Z,16.70
2019-04-07T08:00:15.624Z,16.30
2019-04-07T08:01:15.959Z,16.90
2019-04-07T08:02:19.397Z,15.90
2019-04-07T08:03:15.338Z,16.30
2019-04-07T08:04:16.111Z,16.60
2019-04-07T08:05:16.014Z,15.70
2019-04-07T08:06:16.045Z,16.50
2019-04-07T08:07:16.574Z,17.80
2019-04-07T08:08:16.373Z,17.50
2019-04-07T08:09:18.660Z,17.90
2019-04-07T08:10:15.869Z,17.80
2019-04-07T08:11:16.702Z,18.40
2019-04-07T08:12:15.281Z,16.60
2019-04-07T08:13:15.615Z,17.40
2019-04-07T08:14:18.054Z,16.70
2019-04-07T08:15:15.272Z,17.30
2019-04-07T08:16:15.217Z,17.10
2019-04-07T08:17:15.107Z,17.10
2019-04-07T08:18:15.744Z,17.00
2019-04-07T08:19:15.075Z,16.50
2019-04-07T08:20:15.313Z,17.60
2019-04-07T08:21:18.451Z,17.20
2019-04-07T08:22:26.550Z,16.90
2019-04-07T08:23:15.548Z,15.90
2019-04-07T08:24:18.533Z,17.80
2019-04-07T08:25:15.333Z,16.90
2019-04-07T08:26:15.820Z,16.80
2019-04-07T08:27:14.989Z,17.50
2019-04-07T08:28:15.706Z,16.40
2019-04-07T08:29:15.536Z,17.30
2019-04-07T08:30:14.893Z,16.80
2019-04-07T08:31:17.745Z,16.20
2019-04-07T08:32:14.860Z,16.80
2019-04-07T08:33:14.845Z,17.30
2019-04-07T08:34:14.827Z,16.00
2019-04-07T08:35:15.382Z,16.20
2019-04-07T08:36:15.023Z,16.40
2019-04-07T08:37:15.477Z,16.60
2019-04-07T08:38:19.225Z,15.80
2019-04-07T08:39:22.664Z,15.30
2019-04-07T08:40:15.244Z,15.60
2019-04-07T08:41:15.927Z,15.90
2019-04-07T08:42:18.517Z,16.90
2019-04-07T08:43:14.879Z,15.20
2019-04-07T08:44:15.001Z,16.60
2019-04-07T08:45:14.644Z,15.00
2019-04-07T08:46:15.290Z,15.00
2019-04-07T08:47:20.732Z,16.20
2019-04-07T08:48:18.222Z,15.40
2019-04-07T08:49:14.581Z,16.00
2019-04-07T08:50:15.173Z,16.20
2019-04-07T08:51:14.853Z,15.80
2019-04-07T08:52:15.270Z,15.70
2019-04-07T08:53:14.832Z,16.20
2019-04-07T08:54:16.839Z,15.50
2019-04-07T08:55:15.034Z,15.80
2019-04-07T08:56:14.465Z,16.10
2019-04-07T08:57:15.229Z,16.00
2019-04-07T08:58:25.008Z,16.80
2019-04-07T08:59:16.808Z,14.80
2019-04-07T09:00:17.276Z,16.20
2019-04-07T09:01:14.386Z,14.30
2019-04-07T09:02:14.839Z,15.30
2019-04-07T09:03:15.984Z,15.20
2019-04-07T09:04:16.510Z,15.00
2019-04-07T09:05:14.409Z,13.90
2019-04-07T09:06:14.455Z,14.20
2019-04-07T09:07:14.289Z,14.00
2019-04-07T09:08:14.901Z,14.10
2019-04-07T09:09:14.260Z,14.70
2019-04-07T09:10:17.035Z,14.80
2019-04-07T09:11:14.632Z,14.00
2019-04-07T09:12:14.208Z,14.20
2019-04-07T09:13:14.193Z,13.70
2019-04-07T09:14:16.003Z,14.30
2019-04-07T09:15:14.169Z,13.80
2019-04-07T09:16:16.231Z,14.30
2019-04-07T09:17:14.892Z,14.90
2019-04-07T09:18:15.872Z,13.70
2019-04-07T09:19:14.779Z,13.70
2019-04-07T09:20:14.670Z,12.70
2019-04-07T09:21:15.174Z,13.20
2019-04-07T09:22:14.053Z,12.90
2019-04-07T09:23:14.687Z,12.50
2019-04-07T09:24:14.022Z,12.50
2019-04-07T09:25:14.006Z,12.40
2019-04-07T09:26:14.020Z,12.30
2019-04-07T09:27:17.158Z,12.70
2019-04-07T09:28:14.283Z,12.60
2019-04-07T09:29:13.946Z,13.10
2019-04-07T09:30:14.184Z,13.70
2019-04-07T09:31:14.369Z,12.40
2019-04-07T09:32:13.898Z,12.10
2019-04-07T09:33:14.806Z,12.30
2019-04-07T09:34:18.284Z,12.80
2019-04-07T09:35:14.441Z,11.80
2019-04-07T09:36:13.839Z,12.30
2019-04-07T09:37:13.824Z,11.80
2019-04-07T09:38:14.370Z,12.00
2019-04-07T09:39:14.481Z,11.40
2019-04-07T09:40:17.406Z,11.60
2019-04-07T09:41:16.374Z,11.70
2019-04-07T09:42:13.792Z,11.40
2019-04-07T09:43:16.558Z,10.60
2019-04-07T09:44:14.360Z,10.40
2019-04-07T09:45:13.865Z,10.80
2019-04-07T09:46:13.741Z,11.00
2019-04-07T09:47:16.360Z,11.60
2019-04-07T09:48:13.778Z,10.30
2019-04-07T09:49:13.642Z,10.20
2019-04-07T09:50:13.629Z,10.60
2019-04-07T09:51:13.612Z,10.70
2019-04-07T09:52:15.122Z,11.10
2019-04-07T09:53:17.061Z,10.90
2019-04-07T09:54:14.869Z,10.90
2019-04-07T09:55:14.110Z,10.50
2019-04-07T09:56:13.538Z,10.90
2019-04-07T09:57:14.182Z,10.70
2019-04-07T09:58:13.507Z,10.50
2019-04-07T09:59:18.173Z,10.60
2019-04-07T10:00:14.337Z,10.70
2019-04-07T10:01:17.577Z,9.60
2019-04-07T10:02:13.447Z,10.20
2019-04-07T10:03:15.172Z,10.20
2019-04-07T10:04:13.415Z,10.20
2019-04-07T10:05:13.398Z,10.30
2019-04-07T10:06:13.383Z,10.40
2019-04-07T10:07:15.354Z,10.30
2019-04-07T10:08:13.898Z,10.80
2019-04-07T10:09:13.337Z,10.30
2019-04-07T10:10:14.714Z,10.30
2019-04-07T10:11:13.933Z,9.80
2019-04-07T10:12:14.013Z,10.90
2019-04-07T10:13:13.519Z,10.60
2019-04-07T10:14:13.867Z,11.20
2019-04-07T10:15:14.004Z,10.30
2019-04-07T10:16:13.329Z,9.90
2019-04-07T10:17:13.206Z,9.40
2019-04-07T10:18:13.255Z,9.60
2019-04-07T10:19:13.173Z,11.00
2019-04-07T10:20:13.156Z,9.70
2019-04-07T10:21:13.140Z,10.00
2019-04-07T10:22:13.875Z,9.90
2019-04-07T10:23:13.108Z,9.60
2019-04-07T10:24:13.152Z,10.30
2019-04-07T10:25:13.076Z,10.50
2019-04-07T10:26:13.126Z,10.20
2019-04-07T10:27:13.041Z,10.80
2019-04-07T10:28:13.775Z,10.70
2019-04-07T10:29:13.010Z,10.50
2019-04-07T10:30:13.494Z,10.80
2019-04-07T10:31:13.760Z,10.50
2019-04-07T10:32:13.638Z,9.90
2019-04-07T10:33:13.338Z,10.30
2019-04-07T10:34:13.450Z,10.30
2019-04-07T10:35:13.647Z,10.20
2019-04-07T10:36:13.625Z,10.10
2019-04-07T10:37:13.375Z,9.90
2019-04-07T10:38:12.862Z,10.90
2019-04-07T10:39:13.046Z,9.90
2019-04-07T10:40:19.584Z,9.70
2019-04-07T10:41:12.939Z,10.00
2019-04-07T10:42:13.652Z,10.30
2019-04-07T10:43:12.824Z,10.60
2019-04-07T10:44:12.817Z,10.30
2019-04-07T10:45:12.749Z,10.00
2019-04-07T10:46:13.513Z,10.20
2019-04-07T10:47:12.721Z,10.10
2019-04-07T10:48:13.431Z,10.60
2019-04-07T10:49:12.833Z,10.40
2019-04-07T10:50:12.669Z,10.10
2019-04-07T10:51:12.651Z,10.30
2019-04-07T10:52:12.634Z,9.60
2019-04-07T10:53:12.680Z,9.20
2019-04-07T10:54:12.605Z,10.00
2019-04-07T10:55:13.053Z,9.10
2019-04-07T10:56:12.619Z,9.90
2019-04-07T10:57:12.715Z,10.00
2019-04-07T10:58:12.545Z,9.40
2019-04-07T10:59:12.621Z,9.60
2019-04-07T11:00:12.514Z,9.40
2019-04-07T11:01:12.580Z,9.60
2019-04-07T11:02:13.408Z,9.20
2019-04-07T11:03:13.166Z,9.30
2019-04-07T11:04:12.768Z,8.50
2019-04-07T11:05:13.080Z,8.80
2019-04-07T11:06:12.708Z,9.00
2019-04-07T11:07:12.966Z,9.50
2019-04-07T11:08:12.380Z,8.20
2019-04-07T11:09:13.055Z,8.60
2019-04-07T11:10:12.556Z,8.60
2019-04-07T11:11:12.335Z,8.50
2019-04-07T11:12:12.439Z,8.10
2019-04-07T11:13:13.682Z,8.60
2019-04-07T11:14:12.286Z,8.20
2019-04-07T11:15:12.501Z,8.60
2019-04-07T11:16:12.750Z,8.80
2019-04-07T11:17:12.543Z,8.10
2019-04-07T11:18:12.395Z,8.30
2019-04-07T11:19:12.944Z,8.60
2019-04-07T11:20:13.197Z,8.40
2019-04-07T11:21:12.187Z,8.40
2019-04-07T11:22:12.323Z,8.20
2019-04-07T11:23:12.995Z,7.90
2019-04-07T11:24:12.332Z,7.60
2019-04-07T11:25:12.976Z,8.50
2019-04-07T11:26:12.387Z,7.70
2019-04-07T11:27:13.021Z,8.80
2019-04-07T11:28:12.282Z,7.90
2019-04-07T11:29:12.036Z,8.60
2019-04-07T11:30:12.020Z,9.00
2019-04-07T11:31:12.001Z,8.80
2019-04-07T11:32:12.092Z,8.70
2019-04-07T11:33:12.069Z,9.10
2019-04-07T11:34:11.953Z,8.80
2019-04-07T11:35:11.934Z,8.60
2019-04-07T11:36:12.016Z,9.00
2019-04-07T11:37:12.871Z,9.10
2019-04-07T11:38:11.881Z,8.60
2019-04-07T11:39:11.960Z,8.40
2019-04-07T11:40:11.850Z,9.00
2019-04-07T11:41:12.387Z,8.80
2019-04-07T11:42:11.881Z,8.10
2019-04-07T11:43:11.798Z,8.50
2019-04-07T11:44:11.785Z,9.00
2019-04-07T11:45:11.764Z,8.50
2019-04-07T11:46:11.968Z,8.10
2019-04-07T11:47:11.731Z,8.90
2019-04-07T11:48:12.127Z,8.00
2019-04-07T11:49:13.424Z,9.30
2019-04-07T11:50:12.469Z,8.50
2019-04-07T11:51:11.664Z,9.20
2019-04-07T11:52:12.495Z,8.50
2019-04-07T11:53:11.629Z,8.50
2019-04-07T11:54:11.612Z,7.90
2019-04-07T11:55:11.897Z,8.20
2019-04-07T11:56:11.704Z,8.80
2019-04-07T11:57:11.918Z,8.70
2019-04-07T11:58:16.550Z,8.20
2019-04-07T11:59:11.562Z,9.10
2019-04-07T12:00:12.362Z,8.80
2019-04-07T12:01:14.251Z,8.50
2019-04-07T12:02:11.478Z,8.50
2019-04-07T12:03:11.728Z,9.10
2019-04-07T12:04:14.290Z,8.30
2019-04-07T12:05:11.755Z,8.30
2019-04-07T12:06:13.899Z,9.20
2019-04-07T12:07:12.707Z,8.90
2019-04-07T12:08:11.548Z,8.40
2019-04-07T12:09:11.976Z,9.00
2019-04-07T12:10:11.605Z,8.80
2019-04-07T12:11:14.170Z,8.50
2019-04-07T12:12:11.524Z,8.50
2019-04-07T12:13:12.251Z,9.20
2019-04-07T12:14:15.154Z,8.80
2019-04-07T12:15:12.008Z,8.60
2019-04-07T12:16:11.241Z,8.20
2019-04-07T12:17:12.587Z,9.00
2019-04-07T12:18:15.010Z,8.80
2019-04-07T12:19:11.675Z,8.70
2019-04-07T12:20:11.176Z,8.80
2019-04-07T12:21:21.742Z,8.80
2019-04-07T12:22:13.966Z,8.80
2019-04-07T12:23:11.128Z,9.20
2019-04-07T12:24:11.108Z,8.60
2019-04-07T12:25:11.091Z,9.70
2019-04-07T12:26:11.073Z,8.60
2019-04-07T12:27:12.450Z,8.20
2019-04-07T12:28:14.629Z,9.10
2019-04-07T12:29:11.025Z,9.00
2019-04-07T12:30:11.010Z,8.70
2019-04-07T12:31:11.873Z,8.10
2019-04-07T12:32:11.649Z,8.50
2019-04-07T12:33:11.450Z,8.30
2019-04-07T12:34:14.124Z,9.10
2019-04-07T12:35:10.928Z,9.00
2019-04-07T12:36:11.764Z,8.80
2019-04-07T12:37:10.893Z,8.70
2019-04-07T12:38:12.406Z,8.60
2019-04-07T12:39:12.131Z,9.00
2019-04-07T12:40:10.945Z,8.90
2019-04-07T12:41:17.101Z,8.90
2019-04-07T12:42:11.303Z,9.00
2019-04-07T12:43:13.762Z,9.20
2019-04-07T12:44:11.534Z,9.20
2019-04-07T12:45:11.194Z,9.00
2019-04-07T12:46:11.152Z,8.70
2019-04-07T12:47:11.329Z,9.20
2019-04-07T12:48:11.330Z,8.90
2019-04-07T12:49:10.690Z,9.60
2019-04-07T12:50:15.470Z,8.90
2019-04-07T12:51:11.396Z,9.60
2019-04-07T12:52:10.639Z,8.50
2019-04-07T12:53:10.624Z,8.90
2019-04-07T12:54:11.739Z,8.40
2019-04-07T12:55:11.951Z,8.70
2019-04-07T12:56:11.387Z,9.10
2019-04-07T12:57:10.639Z,8.60